Dades meteomassalio
Diari Summary for Marc 8, 2017 Units:  English    Metric   Both
« Previous Day
Next Day »
Diari Semanal Mensual Anual Personalitzat
  Maxima: Minima: Mijana:
Temperatura: TemperatureC °F 8.8 °F 15.3 °F
Rosada: DewpointC °F 6.4 °F 8.6 °F
Humitat: Humidity % 47 % 65 %
Velocitat del vent: WindSpeedKMH mph 0.0 mph 18.9 mph
Racha vent: WindSpeedGustKMH mph - -
Vent:- - WNW
Pressio: PressurehPa in 1023.6 in -
Pluja: 0.0 in    
Historical Graphs
 
 
Tabular Data for Marc 8, 2017
Time Temperature Dew Point Pressure Wind Wind Speed Wind Gust Humidity Rainfall Rate (Hourly) solar Conditions
TemperatureC °F DewpointC °F PressurehPa in Calm     Humidity % HourlyPrecipMM in SolarRadiationWatts/m^2 W/m2 Conditions
00:01 14.1 °F 8.9 °F 1023.6 in WNW 51.8 mph 51.8 mph 71 % 0.0 in 0.0 W/m2 CLR
00:07 14.1 °F 8.9 °F 1023.6 in NW 61.1 mph 61.1 mph 71 % 0.0 in 0.0 W/m2
00:12 14.1 °F 8.9 °F 1023.9 in NW 51.8 mph 51.8 mph 71 % 0.0 in 0.0 W/m2 CLR
00:17 14.0 °F 8.8 °F 1023.9 in NNW 42.6 mph 42.6 mph 71 % 0.0 in 0.0 W/m2 CLR
00:22 14.0 °F 8.8 °F 1023.9 in NW 40.7 mph 40.7 mph 71 % 0.0 in 0.0 W/m2 CLR
00:27 14.0 °F 8.8 °F 1023.9 in NW 51.5 mph 51.5 mph 71 % 0.0 in 0.0 W/m2 CLR
00:32 13.9 °F 9.0 °F 1024.3 in NNW 53.7 mph 53.7 mph 72 % 0.0 in 0.0 W/m2 CLR
00:37 13.9 °F 8.9 °F 1023.9 in NW 51.8 mph 51.8 mph 72 % 0.0 in 0.0 W/m2 CLR
00:42 13.8 °F 8.8 °F 1023.9 in WNW 46.3 mph 46.3 mph 72 % 0.0 in 0.0 W/m2 CLR
00:47 13.7 °F 8.9 °F 1023.9 in West 42.6 mph 42.6 mph 73 % 0.0 in 0.0 W/m2 CLR
00:52 13.6 °F 8.8 °F 1023.9 in NW 37.0 mph 37.0 mph 73 % 0.0 in 0.0 W/m2 CLR
00:57 13.6 °F 8.8 °F 1023.9 in NNW 53.7 mph 53.7 mph 73 % 0.0 in 0.0 W/m2 CLR
01:02 13.6 °F 8.8 °F 1024.3 in NNW 51.8 mph 51.8 mph 73 % 0.0 in 0.0 W/m2 CLR
01:07 13.6 °F 8.8 °F 1024.3 in WNW 48.1 mph 48.1 mph 73 % 0.0 in 0.0 W/m2 CLR
01:12 13.6 °F 8.8 °F 1024.3 in NW 44.4 mph 44.4 mph 73 % 0.0 in 0.0 W/m2 CLR
01:17 13.6 °F 8.7 °F 1023.9 in WNW 51.8 mph 51.8 mph 72 % 0.0 in 0.0 W/m2 CLR
01:22 13.7 °F 8.7 °F 1023.9 in NW 31.5 mph 31.5 mph 72 % 0.0 in 0.0 W/m2 CLR
01:27 13.6 °F 8.7 °F 1023.9 in WNW 50.0 mph 50.0 mph 72 % 0.0 in 0.0 W/m2 CLR
01:32 13.6 °F 8.7 °F 1023.9 in NW 33.3 mph 33.3 mph 72 % 0.0 in 0.0 W/m2 CLR
01:33 13.6 °F 8.6 °F 1023.9 in WNW 37.0 mph 37.0 mph 72 % 0.0 in 0.0 W/m2 CLR
01:38 13.5 °F 8.8 °F 1023.9 in NW 40.2 mph 40.2 mph 73 % 0.0 in 0.0 W/m2 CLR
01:43 13.6 °F 8.6 °F 1023.9 in NW 50.0 mph 50.0 mph 72 % 0.0 in 0.0 W/m2 CLR
01:48 13.6 °F 8.7 °F 1023.9 in NNW 57.4 mph 57.4 mph 72 % 0.0 in 0.0 W/m2 CLR
01:53 13.6 °F 8.6 °F 1023.9 in NNW 35.2 mph 35.2 mph 72 % 0.0 in 0.0 W/m2 CLR
01:58 13.6 °F 8.7 °F 1024.3 in NW 51.8 mph 51.8 mph 72 % 0.0 in 0.0 W/m2 CLR
02:03 13.6 °F 8.6 °F 1024.3 in NW 42.6 mph 42.6 mph 72 % 0.0 in 0.0 W/m2 CLR
02:08 13.6 °F 8.7 °F 1024.3 in NW 46.7 mph 46.7 mph 72 % 0.0 in 0.0 W/m2 CLR
02:13 13.7 °F 8.8 °F 1024.3 in NW 46.3 mph 46.3 mph 72 % 0.0 in 0.0 W/m2 CLR
02:18 13.7 °F 8.7 °F 1024.3 in NW 40.7 mph 40.7 mph 72 % 0.0 in 0.0 W/m2 CLR
02:23 13.6 °F 8.6 °F 1024.6 in NW 31.5 mph 31.5 mph 72 % 0.0 in 0.0 W/m2 CLR
02:28 13.6 °F 8.6 °F 1024.6 in NW 42.6 mph 42.6 mph 72 % 0.0 in 0.0 W/m2 CLR
02:33 13.4 °F 8.5 °F 1024.6 in WNW 31.5 mph 31.5 mph 72 % 0.0 in 0.0 W/m2 CLR
02:38 13.4 °F 8.4 °F 1024.6 in NNW 33.8 mph 33.8 mph 72 % 0.0 in 0.0 W/m2 CLR
02:39 13.4 °F 8.4 °F 1024.6 in WNW 42.6 mph 42.6 mph 72 % 0.0 in 0.0 W/m2 CLR
02:44 13.4 °F 8.5 °F 1024.6 in NNW 42.6 mph 42.6 mph 72 % 0.0 in 0.0 W/m2 CLR
02:49 13.5 °F 8.6 °F 1024.6 in WNW 38.9 mph 38.9 mph 72 % 0.0 in 0.0 W/m2 CLR
02:54 13.4 °F 8.5 °F 1024.6 in WNW 38.9 mph 38.9 mph 72 % 0.0 in 0.0 W/m2 CLR
02:59 13.4 °F 8.5 °F 1024.6 in WNW 31.5 mph 31.5 mph 72 % 0.0 in 0.0 W/m2 CLR
03:04 13.3 °F 8.4 °F 1024.6 in NW 31.5 mph 31.5 mph 72 % 0.0 in 0.0 W/m2 CLR
03:09 13.3 °F 8.4 °F 1024.6 in WNW 42.6 mph 42.6 mph 72 % 0.0 in 0.0 W/m2 CLR
03:14 13.3 °F 8.6 °F 1024.6 in NNW 37.0 mph 37.0 mph 73 % 0.0 in 0.0 W/m2 CLR
03:19 13.2 °F 8.4 °F 1024.6 in NW 25.9 mph 25.9 mph 73 % 0.0 in 0.0 W/m2 CLR
03:24 13.2 °F 8.4 °F 1024.6 in NW 31.5 mph 31.5 mph 73 % 0.0 in 0.0 W/m2 CLR
03:29 13.1 °F 8.4 °F 1024.6 in WNW 27.8 mph 27.8 mph 73 % 0.0 in 0.0 W/m2 CLR
03:34 13.2 °F 8.5 °F 1024.6 in NW 25.9 mph 25.9 mph 73 % 0.0 in 0.0 W/m2 CLR
03:39 13.2 °F 8.4 °F 1024.6 in WNW 31.5 mph 31.5 mph 73 % 0.0 in 0.0 W/m2 CLR
03:44 13.2 °F 8.2 °F 1024.9 in WNW 29.6 mph 29.6 mph 72 % 0.0 in 0.0 W/m2 CLR
03:49 13.2 °F 8.3 °F 1024.6 in NW 35.4 mph 35.4 mph 72 % 0.0 in 0.0 W/m2 CLR
03:54 13.2 °F 8.3 °F 1024.9 in NNW 27.8 mph 27.8 mph 72 % 0.0 in 0.0 W/m2 CLR
03:59 13.2 °F 8.2 °F 1024.9 in West 27.8 mph 27.8 mph 72 % 0.0 in 0.0 W/m2 CLR
04:05 13.2 °F 8.3 °F 1024.9 in WNW 27.4 mph 27.4 mph 72 % 0.0 in 0.0 W/m2 CLR
04:10 13.3 °F 8.1 °F 1024.9 in NNW 24.1 mph 24.1 mph 71 % 0.0 in 0.0 W/m2 CLR
04:15 13.2 °F 8.3 °F 1024.9 in WNW 27.4 mph 27.4 mph 72 % 0.0 in 0.0 W/m2 CLR
04:20 13.2 °F 8.1 °F 1024.9 in WNW 27.4 mph 27.4 mph 71 % 0.0 in 0.0 W/m2 CLR
04:25 13.1 °F 8.2 °F 1025.3 in NW 25.9 mph 25.9 mph 72 % 0.0 in 0.0 W/m2 CLR
04:30 13.1 °F 8.2 °F 1025.3 in West 29.6 mph 29.6 mph 72 % 0.0 in 0.0 W/m2 CLR
04:35 13.1 °F 8.1 °F 1025.3 in WSW 18.5 mph 18.5 mph 72 % 0.0 in 0.0 W/m2 CLR
04:40 13.1 °F 8.1 °F 1025.3 in West 17.7 mph 17.7 mph 72 % 0.0 in 0.0 W/m2 CLR
04:45 12.8 °F 8.1 °F 1025.3 in West 16.7 mph 16.7 mph 73 % 0.0 in 0.0 W/m2 CLR
04:50 12.8 °F 8.1 °F 1025.3 in West 20.4 mph 20.4 mph 73 % 0.0 in 0.0 W/m2 CLR
04:55 12.7 °F 7.9 °F 1025.3 in West 18.5 mph 18.5 mph 73 % 0.0 in 0.0 W/m2 CLR
05:00 12.6 °F 8.1 °F 1025.3 in West 16.7 mph 16.7 mph 74 % 0.0 in 0.0 W/m2 CLR
05:05 12.5 °F 8.0 °F 1025.3 in West 18.5 mph 18.5 mph 74 % 0.0 in 0.0 W/m2 CLR
05:10 12.4 °F 7.9 °F 1025.3 in West 20.9 mph 20.9 mph 74 % 0.0 in 0.0 W/m2 CLR
05:15 12.5 °F 8.0 °F 1025.3 in West 24.1 mph 24.1 mph 74 % 0.0 in 0.0 W/m2 CLR
05:20 12.4 °F 7.9 °F 1025.6 in SSW 5.6 mph 8.8 mph 74 % 0.0 in 0.0 W/m2 CLR
05:25 12.3 °F 7.8 °F 1025.6 in WSW 19.3 mph 19.3 mph 74 % 0.0 in 0.0 W/m2 CLR
05:30 12.3 °F 7.8 °F 1025.6 in SW 16.7 mph 16.7 mph 74 % 0.0 in 0.0 W/m2 CLR
05:35 12.2 °F 7.9 °F 1025.6 in SSW 8.0 mph 8.0 mph 75 % 0.0 in 0.0 W/m2 CLR
05:40 12.2 °F 7.9 °F 1026.0 in WSW 17.7 mph 17.7 mph 75 % 0.0 in 0.0 W/m2 CLR
05:45 12.2 °F 7.7 °F 1026.0 in West 18.5 mph 18.5 mph 74 % 0.0 in 0.0 W/m2 CLR
05:50 12.3 °F 7.8 °F 1025.6 in WNW 20.4 mph 20.4 mph 74 % 0.0 in 0.0 W/m2 CLR
05:55 12.5 °F 8.0 °F 1025.6 in West 29.0 mph 29.0 mph 74 % 0.0 in 0.0 W/m2 CLR
06:00 12.6 °F 7.8 °F 1025.6 in West 25.7 mph 25.7 mph 73 % 0.0 in 0.0 W/m2 CLR
06:05 12.6 °F 7.9 °F 1025.6 in West 25.9 mph 25.9 mph 73 % 0.0 in 0.0 W/m2 CLR
06:10 12.7 °F 7.9 °F 1026.0 in West 18.5 mph 18.5 mph 73 % 0.0 in 0.0 W/m2 CLR
06:15 12.7 °F 7.9 °F 1026.0 in SW 20.4 mph 20.4 mph 73 % 0.0 in 0.0 W/m2 CLR
06:20 12.6 °F 7.9 °F 1026.3 in West 16.7 mph 16.7 mph 73 % 0.0 in 0.0 W/m2 CLR
06:25 12.6 °F 7.9 °F 1026.3 in SW 20.4 mph 20.4 mph 73 % 0.0 in 0.0 W/m2 CLR
06:30 12.6 °F 7.9 °F 1026.3 in WSW 14.8 mph 14.8 mph 73 % 0.0 in 0.0 W/m2 CLR
06:35 12.6 °F 7.8 °F 1026.3 in WSW 5.6 mph 5.6 mph 73 % 0.0 in 0.0 W/m2 CLR
06:40 12.5 °F 7.8 °F 1026.6 in WSW 7.4 mph 7.4 mph 73 % 0.0 in 0.0 W/m2 CLR
06:45 12.4 °F 7.7 °F 1026.6 in WSW 11.1 mph 11.1 mph 73 % 0.0 in 0.0 W/m2 CLR
06:50 12.4 °F 7.7 °F 1026.6 in WSW 11.1 mph 11.1 mph 73 % 0.0 in 0.0 W/m2 CLR
06:55 12.5 °F 7.8 °F 1026.6 in SW 13.0 mph 13.0 mph 73 % 0.0 in 0.0 W/m2 CLR
07:00 12.5 °F 7.8 °F 1026.6 in WSW 19.3 mph 19.3 mph 73 % 0.0 in 0.0 W/m2 CLR
07:05 12.6 °F 7.8 °F 1026.6 in WSW 18.5 mph 18.5 mph 73 % 0.0 in 0.0 W/m2 CLR
07:10 12.6 °F 7.8 °F 1026.6 in West 24.1 mph 24.1 mph 73 % 0.0 in 0.0 W/m2 CLR
07:15 12.6 °F 7.7 °F 1026.6 in West 25.9 mph 25.9 mph 72 % 0.0 in 5.0 W/m2 OVC
07:20 12.7 °F 7.8 °F 1026.6 in West 22.5 mph 22.5 mph 72 % 0.0 in 5.0 W/m2 OVC
07:25 12.7 °F 7.8 °F 1027.0 in West 25.9 mph 25.9 mph 72 % 0.0 in 0.0 W/m2 OVC
07:30 12.7 °F 7.8 °F 1027.0 in WNW 20.9 mph 20.9 mph 72 % 0.0 in 7.0 W/m2 OVC
07:35 12.7 °F 7.8 °F 1027.0 in West 22.2 mph 22.2 mph 72 % 0.0 in 11.0 W/m2 BKN
07:40 12.7 °F 7.7 °F 1027.0 in West 16.7 mph 16.7 mph 72 % 0.0 in 14.0 W/m2 BKN
07:45 12.6 °F 7.7 °F 1027.0 in WNW 25.9 mph 25.9 mph 72 % 0.0 in 21.0 W/m2 BKN
07:50 12.7 °F 7.7 °F 1027.3 in WNW 27.8 mph 27.8 mph 72 % 0.0 in 25.0 W/m2 BKN
07:55 12.8 °F 7.8 °F 1027.3 in West 16.7 mph 16.7 mph 72 % 0.0 in 33.0 W/m2 BKN
08:00 12.9 °F 7.8 °F 1027.3 in West 14.8 mph 14.8 mph 71 % 0.0 in 44.0 W/m2 BKN
08:05 12.9 °F 7.8 °F 1027.3 in WNW 18.5 mph 18.5 mph 71 % 0.0 in 49.0 W/m2 SCT
08:10 12.9 °F 7.8 °F 1027.7 in West 14.8 mph 14.8 mph 71 % 0.0 in 58.0 W/m2 SCT
08:15 13.1 °F 7.9 °F 1027.7 in SW 18.5 mph 18.5 mph 71 % 0.0 in 70.0 W/m2 FEW
08:20 13.2 °F 8.0 °F 1027.7 in SW 5.6 mph 5.6 mph 71 % 0.0 in 98.0 W/m2 CLR
08:25 13.2 °F 8.1 °F 1027.7 in SW 5.6 mph 5.6 mph 71 % 0.0 in 118.0 W/m2 CLR
08:30 13.3 °F 8.0 °F 1027.7 in WNW 11.1 mph 11.1 mph 70 % 0.0 in 130.0 W/m2 CLR
08:35 13.5 °F 8.1 °F 1027.7 in WNW 27.4 mph 27.4 mph 70 % 0.0 in 113.0 W/m2 CLR
08:40 13.6 °F 8.2 °F 1027.7 in WNW 18.5 mph 18.5 mph 70 % 0.0 in 148.0 W/m2 CLR
08:45 13.6 °F 8.0 °F 1027.7 in West 20.4 mph 20.4 mph 69 % 0.0 in 105.0 W/m2 CLR
08:50 13.7 °F 8.1 °F 1027.7 in West 18.5 mph 18.5 mph 69 % 0.0 in 146.0 W/m2 CLR
08:55 13.8 °F 8.2 °F 1027.7 in West 22.2 mph 22.2 mph 69 % 0.0 in 220.0 W/m2 CLR
09:00 14.0 °F 8.2 °F 1027.7 in West 14.8 mph 14.8 mph 68 % 0.0 in 267.0 W/m2 CLR
09:05 14.2 °F 8.3 °F 1027.7 in WSW 24.1 mph 24.1 mph 68 % 0.0 in 229.0 W/m2 CLR
09:10 14.3 °F 8.2 °F 1027.7 in West 29.6 mph 29.6 mph 67 % 0.0 in 255.0 W/m2 CLR
09:15 14.3 °F 8.3 °F 1027.7 in West 31.5 mph 31.5 mph 67 % 0.0 in 262.0 W/m2 CLR
09:20 14.3 °F 8.3 °F 1027.7 in WSW 27.8 mph 27.8 mph 67 % 0.0 in 264.0 W/m2 CLR
09:25 14.4 °F 8.3 °F 1027.7 in West 29.0 mph 29.0 mph 67 % 0.0 in 327.0 W/m2 CLR
09:26 14.4 °F 8.3 °F 1027.7 in WNW 29.6 mph 29.6 mph 67 % 0.0 in 353.0 W/m2 CLR
09:31 14.4 °F 8.4 °F 1027.7 in West 24.1 mph 24.1 mph 67 % 0.0 in 283.0 W/m2 CLR
09:36 14.6 °F 8.6 °F 1027.7 in WNW 29.6 mph 29.6 mph 67 % 0.0 in 408.0 W/m2 CLR
09:41 14.7 °F 8.7 °F 1027.7 in West 22.5 mph 22.5 mph 67 % 0.0 in 411.0 W/m2 CLR
09:46 14.8 °F 8.7 °F 1027.7 in WNW 31.5 mph 31.5 mph 67 % 0.0 in 176.0 W/m2 CLR
09:51 14.7 °F 8.7 °F 1027.7 in West 24.1 mph 24.1 mph 67 % 0.0 in 418.0 W/m2 CLR
09:56 14.8 °F 8.5 °F 1027.7 in WSW 24.1 mph 24.1 mph 66 % 0.0 in 399.0 W/m2 CLR
10:01 14.8 °F 8.6 °F 1027.7 in West 27.8 mph 27.8 mph 66 % 0.0 in 221.0 W/m2 CLR
10:06 14.9 °F 8.6 °F 1027.7 in SW 25.9 mph 25.9 mph 66 % 0.0 in 318.0 W/m2 CLR
10:11 14.9 °F 8.4 °F 1027.7 in WNW 31.5 mph 31.5 mph 65 % 0.0 in 223.0 W/m2 CLR
10:16 14.9 °F 8.7 °F 1027.7 in WNW 25.9 mph 25.9 mph 66 % 0.0 in 348.0 W/m2 CLR
10:21 14.9 °F 8.7 °F 1027.7 in West 20.4 mph 20.4 mph 66 % 0.0 in 142.0 W/m2 CLR
10:26 15.0 °F 8.4 °F 1027.7 in WSW 25.9 mph 25.9 mph 65 % 0.0 in 302.0 W/m2 CLR
10:31 15.3 °F 8.7 °F 1027.7 in West 20.4 mph 20.4 mph 65 % 0.0 in 476.0 W/m2 CLR
10:36 15.6 °F 8.8 °F 1027.7 in West 24.1 mph 24.1 mph 64 % 0.0 in 529.0 W/m2 CLR
10:41 15.8 °F 9.2 °F 1027.7 in West 24.1 mph 24.1 mph 65 % 0.0 in 501.0 W/m2 CLR
10:46 16.0 °F 9.2 °F 1027.7 in WNW 13.0 mph 13.0 mph 64 % 0.0 in 533.0 W/m2 CLR
10:51 16.3 °F 9.5 °F 1027.7 in NW 20.4 mph 20.4 mph 64 % 0.0 in 510.0 W/m2 CLR
10:56 16.4 °F 9.1 °F 1027.7 in WNW 25.7 mph 25.7 mph 62 % 0.0 in 547.0 W/m2 CLR
11:01 16.4 °F 9.6 °F 1027.7 in NW 18.5 mph 18.5 mph 64 % 0.0 in 476.0 W/m2 CLR
11:06 16.7 °F 9.6 °F 1027.7 in WNW 18.5 mph 18.5 mph 63 % 0.0 in 599.0 W/m2 CLR
11:11 16.6 °F 9.1 °F 1027.7 in WNW 31.5 mph 31.5 mph 61 % 0.0 in 568.0 W/m2 CLR
11:16 16.8 °F 9.2 °F 1027.7 in WNW 25.9 mph 25.9 mph 61 % 0.0 in 538.0 W/m2 CLR
11:21 16.8 °F 8.9 °F 1028.0 in West 24.1 mph 24.1 mph 60 % 0.0 in 506.0 W/m2 CLR
11:26 16.8 °F 8.9 °F 1028.0 in West 22.2 mph 22.2 mph 60 % 0.0 in 621.0 W/m2 CLR
11:31 16.9 °F 8.9 °F 1027.7 in West 29.0 mph 29.0 mph 59 % 0.0 in 538.0 W/m2 CLR
11:36 17.1 °F 9.3 °F 1028.0 in West 24.1 mph 24.1 mph 60 % 0.0 in 629.0 W/m2 CLR
11:41 17.2 °F 9.1 °F 1027.7 in WNW 27.8 mph 27.8 mph 59 % 0.0 in 598.0 W/m2 CLR
11:46 17.2 °F 8.9 °F 1027.7 in WNW 24.1 mph 24.1 mph 58 % 0.0 in 613.0 W/m2 CLR
11:47 17.3 °F 9.2 °F 1027.7 in NW 24.1 mph 24.1 mph 59 % 0.0 in 613.0 W/m2 CLR
11:52 17.4 °F 9.1 °F 1027.7 in West 24.1 mph 24.1 mph 58 % 0.0 in 675.0 W/m2 CLR
11:57 17.6 °F 9.2 °F 1027.7 in WNW 22.5 mph 22.5 mph 58 % 0.0 in 575.0 W/m2 CLR
12:02 17.6 °F 9.0 °F 1027.7 in WNW 27.8 mph 27.8 mph 57 % 0.0 in 633.0 W/m2 CLR
12:07 17.7 °F 9.1 °F 1027.7 in WNW 20.9 mph 20.9 mph 57 % 0.0 in 664.0 W/m2 CLR
12:12 17.8 °F 9.4 °F 1027.7 in NW 22.2 mph 22.2 mph 58 % 0.0 in 679.0 W/m2 CLR
12:17 18.1 °F 9.4 °F 1027.7 in NW 25.9 mph 25.9 mph 57 % 0.0 in 635.0 W/m2 CLR
12:22 18.0 °F 9.1 °F 1027.7 in WNW 25.9 mph 25.9 mph 56 % 0.0 in 561.0 W/m2 CLR
12:27 18.2 °F 9.0 °F 1027.3 in NW 29.6 mph 29.6 mph 55 % 0.0 in 649.0 W/m2 CLR
12:32 18.3 °F 8.8 °F 1027.3 in West 29.0 mph 29.0 mph 54 % 0.0 in 635.0 W/m2 CLR
12:37 18.6 °F 9.4 °F 1027.7 in NW 18.5 mph 18.5 mph 55 % 0.0 in 679.0 W/m2 CLR
12:42 18.6 °F 8.8 °F 1027.3 in WSW 20.4 mph 20.4 mph 53 % 0.0 in 673.0 W/m2 CLR
12:47 18.6 °F 9.1 °F 1027.7 in WNW 25.7 mph 25.7 mph 54 % 0.0 in 668.0 W/m2 CLR
12:52 18.8 °F 9.6 °F 1027.3 in WNW 20.9 mph 20.9 mph 55 % 0.0 in 668.0 W/m2 CLR
12:57 18.9 °F 9.7 °F 1027.3 in WNW 22.2 mph 22.2 mph 55 % 0.0 in 694.0 W/m2 CLR
13:02 19.0 °F 9.8 °F 1027.3 in WNW 29.6 mph 29.6 mph 55 % 0.0 in 689.0 W/m2 CLR
13:07 19.3 °F 9.4 °F 1027.3 in NW 22.5 mph 22.5 mph 53 % 0.0 in 691.0 W/m2 CLR
13:12 19.1 °F 9.6 °F 1027.3 in NW 18.5 mph 18.5 mph 54 % 0.0 in 664.0 W/m2 CLR
13:17 19.2 °F 9.6 °F 1027.3 in NNW 24.1 mph 24.1 mph 54 % 0.0 in 673.0 W/m2 CLR
13:22 19.3 °F 9.5 °F 1027.0 in NW 22.2 mph 22.2 mph 53 % 0.0 in 686.0 W/m2 CLR
13:27 19.3 °F 9.8 °F 1027.0 in NW 20.4 mph 20.4 mph 54 % 0.0 in 654.0 W/m2 CLR
13:32 19.4 °F 9.6 °F 1027.0 in NW 22.2 mph 22.2 mph 53 % 0.0 in 666.0 W/m2 CLR
13:37 19.7 °F 9.9 °F 1027.0 in WNW 20.9 mph 20.9 mph 53 % 0.0 in 696.0 W/m2 CLR
13:42 19.9 °F 9.8 °F 1026.6 in WNW 22.5 mph 22.5 mph 52 % 0.0 in 701.0 W/m2 CLR
13:47 19.9 °F 9.5 °F 1026.6 in NW 25.9 mph 25.9 mph 51 % 0.0 in 679.0 W/m2 CLR
13:52 19.8 °F 9.4 °F 1026.6 in NNW 20.9 mph 20.9 mph 51 % 0.0 in 694.0 W/m2 CLR
13:57 20.1 °F 10.4 °F 1026.6 in NW 18.5 mph 18.5 mph 54 % 0.0 in 700.0 W/m2 CLR
14:02 20.3 °F 9.5 °F 1026.6 in NNW 27.8 mph 27.8 mph 50 % 0.0 in 705.0 W/m2 CLR
14:07 20.3 °F 9.8 °F 1026.3 in NW 18.5 mph 18.5 mph 51 % 0.0 in 668.0 W/m2 CLR
14:12 20.4 °F 9.7 °F 1026.3 in NW 25.9 mph 25.9 mph 50 % 0.0 in 640.0 W/m2 CLR
14:17 20.5 °F 10.0 °F 1026.3 in NW 27.4 mph 27.4 mph 51 % 0.0 in 564.0 W/m2 CLR
14:22 20.4 °F 9.7 °F 1026.3 in NW 24.1 mph 24.1 mph 50 % 0.0 in 652.0 W/m2 CLR
14:27 20.6 °F 10.1 °F 1026.3 in NW 20.4 mph 20.4 mph 51 % 0.0 in 601.0 W/m2 CLR
14:32 20.6 °F 9.8 °F 1026.0 in NW 22.2 mph 22.2 mph 50 % 0.0 in 606.0 W/m2 CLR
14:37 20.9 °F 10.1 °F 1026.0 in WNW 22.2 mph 22.2 mph 50 % 0.0 in 661.0 W/m2 CLR
14:42 21.0 °F 9.6 °F 1026.0 in NW 22.2 mph 22.2 mph 48 % 0.0 in 635.0 W/m2 CLR
14:47 20.9 °F 9.5 °F 1026.0 in NW 24.1 mph 24.1 mph 48 % 0.0 in 417.0 W/m2 CLR
14:52 20.8 °F 9.7 °F 1026.0 in NNW 31.5 mph 31.5 mph 49 % 0.0 in 580.0 W/m2 CLR
14:57 20.8 °F 10.3 °F 1026.0 in NW 22.2 mph 22.2 mph 51 % 0.0 in 541.0 W/m2 CLR
15:02 20.9 °F 10.1 °F 1026.0 in NW 22.2 mph 22.2 mph 50 % 0.0 in 603.0 W/m2 CLR
15:07 21.0 °F 10.2 °F 1026.0 in WNW 20.4 mph 20.4 mph 50 % 0.0 in 550.0 W/m2 CLR
15:12 21.0 °F 9.9 °F 1026.0 in NW 18.5 mph 18.5 mph 49 % 0.0 in 288.0 W/m2 CLR
15:17 20.9 °F 9.8 °F 1026.0 in WNW 20.4 mph 20.4 mph 49 % 0.0 in 192.0 W/m2 CLR
15:18 20.8 °F 9.4 °F 1026.0 in WNW 16.7 mph 16.7 mph 48 % 0.0 in 192.0 W/m2 CLR
15:23 20.7 °F 9.6 °F 1026.0 in WNW 14.8 mph 14.8 mph 49 % 0.0 in 429.0 W/m2 CLR
15:28 20.9 °F 10.1 °F 1026.0 in NNW 16.7 mph 16.7 mph 50 % 0.0 in 492.0 W/m2 CLR
15:33 20.9 °F 9.5 °F 1026.0 in NNW 20.4 mph 20.4 mph 48 % 0.0 in 362.0 W/m2 CLR
15:38 20.8 °F 9.4 °F 1026.0 in NW 18.5 mph 18.5 mph 48 % 0.0 in 408.0 W/m2 CLR
15:43 20.9 °F 9.8 °F 1026.0 in NNW 20.4 mph 20.4 mph 49 % 0.0 in 425.0 W/m2 CLR
15:48 21.1 °F 9.9 °F 1025.6 in NW 18.5 mph 18.5 mph 49 % 0.0 in 601.0 W/m2 CLR
15:53 21.3 °F 9.8 °F 1025.6 in NNW 18.5 mph 18.5 mph 48 % 0.0 in 471.0 W/m2 CLR
15:58 21.3 °F 10.1 °F 1025.6 in WNW 22.2 mph 22.2 mph 49 % 0.0 in 404.0 W/m2 CLR
16:03 21.3 °F 10.2 °F 1025.6 in NW 18.5 mph 18.5 mph 49 % 0.0 in 487.0 W/m2 CLR
16:08 21.3 °F 9.5 °F 1025.6 in NNW 25.9 mph 25.9 mph 47 % 0.0 in 308.0 W/m2 CLR
16:13 21.1 °F 9.6 °F 1025.6 in NW 18.5 mph 18.5 mph 48 % 0.0 in 311.0 W/m2 CLR
16:18 21.2 °F 9.8 °F 1025.6 in NNW 18.5 mph 18.5 mph 48 % 0.0 in 346.0 W/m2 CLR
16:23 21.3 °F 10.1 °F 1025.6 in NW 18.5 mph 18.5 mph 49 % 0.0 in 376.0 W/m2 CLR
16:28 21.3 °F 9.6 °F 1025.6 in NW 14.8 mph 14.8 mph 47 % 0.0 in 362.0 W/m2 CLR
16:33 21.3 °F 9.9 °F 1025.6 in NNW 18.5 mph 18.5 mph 48 % 0.0 in 348.0 W/m2 CLR
16:38 21.3 °F 9.9 °F 1025.3 in NW 18.5 mph 18.5 mph 48 % 0.0 in 352.0 W/m2 CLR
16:43 21.3 °F 9.5 °F 1025.6 in WNW 22.2 mph 22.2 mph 47 % 0.0 in 406.0 W/m2 CLR
16:48 21.3 °F 9.8 °F 1025.3 in NW 25.9 mph 25.9 mph 48 % 0.0 in 376.0 W/m2 CLR
16:53 21.3 °F 9.5 °F 1025.3 in NW 16.7 mph 16.7 mph 47 % 0.0 in 295.0 W/m2 CLR
16:58 21.2 °F 9.4 °F 1025.3 in North 18.5 mph 18.5 mph 47 % 0.0 in 229.0 W/m2 CLR
17:03 21.1 °F 10.0 °F 1025.3 in NNW 5.6 mph 5.6 mph 49 % 0.0 in 216.0 W/m2 CLR
17:08 21.0 °F 9.6 °F 1025.3 in NNW 9.7 mph 9.7 mph 48 % 0.0 in 165.0 W/m2 CLR
17:13 20.9 °F 9.4 °F 1025.3 in Calm     48 % 0.0 in 165.0 W/m2 CLR
17:18 20.9 °F 9.8 °F 1025.3 in NNW 5.6 mph 5.6 mph 49 % 0.0 in 151.0 W/m2 CLR
17:23 20.8 °F 9.7 °F 1025.3 in Calm     49 % 0.0 in 207.0 W/m2 CLR
17:28 20.8 °F 9.4 °F 1025.3 in NNW 14.8 mph 14.8 mph 48 % 0.0 in 155.0 W/m2 CLR
17:33 20.8 °F 9.4 °F 1025.3 in WNW 5.6 mph 5.6 mph 48 % 0.0 in 158.0 W/m2 CLR
17:38 20.7 °F 9.9 °F 1025.3 in NNW 3.2 mph 3.2 mph 50 % 0.0 in 134.0 W/m2 CLR
17:43 20.7 °F 9.3 °F 1025.3 in NW 5.6 mph 5.6 mph 48 % 0.0 in 181.0 W/m2 CLR
17:48 20.8 °F 9.4 °F 1025.3 in West 5.6 mph 5.6 mph 48 % 0.0 in 158.0 W/m2 CLR
17:53 20.8 °F 9.4 °F 1025.3 in WNW 5.6 mph 5.6 mph 48 % 0.0 in 118.0 W/m2 CLR
17:58 20.7 °F 9.3 °F 1025.3 in Calm     48 % 0.0 in 97.0 W/m2 CLR
18:03 20.6 °F 9.2 °F 1025.3 in WNW 3.7 mph 3.7 mph 48 % 0.0 in 98.0 W/m2 CLR
18:08 20.6 °F 9.8 °F 1025.3 in NW 5.6 mph 5.6 mph 50 % 0.0 in 70.0 W/m2 FEW
18:13 20.3 °F 8.9 °F 1025.3 in NW 3.7 mph 3.7 mph 48 % 0.0 in 67.0 W/m2 SCT
18:18 20.2 °F 9.4 °F 1025.3 in WNW 1.6 mph 1.6 mph 50 % 0.0 in 56.0 W/m2 SCT
18:23 19.9 °F 9.2 °F 1025.3 in Calm     50 % 0.0 in 44.0 W/m2 BKN
18:28 19.8 °F 9.1 °F 1025.3 in Calm     50 % 0.0 in 37.0 W/m2 BKN
18:29 19.8 °F 9.3 °F 1025.3 in Calm     51 % 0.0 in 37.0 W/m2 BKN
18:34 19.7 °F 9.2 °F 1025.3 in Calm     51 % 0.0 in 28.0 W/m2 BKN
18:39 19.4 °F 8.7 °F 1025.3 in Calm     50 % 0.0 in 21.0 W/m2 BKN
18:44 19.3 °F 8.9 °F 1025.3 in Calm     51 % 0.0 in 16.0 W/m2 BKN
18:49 19.2 °F 8.8 °F 1025.3 in Calm     51 % 0.0 in 11.0 W/m2 BKN
18:54 18.9 °F 8.9 °F 1025.3 in Calm     52 % 0.0 in 7.0 W/m2 BKN
18:59 18.7 °F 8.9 °F 1025.6 in Calm     53 % 0.0 in 0.0 W/m2 OVC
19:04 18.2 °F 9.0 °F 1025.6 in Calm     55 % 0.0 in 0.0 W/m2 CLR
19:09 17.9 °F 9.1 °F 1025.6 in Calm     56 % 0.0 in 0.0 W/m2 CLR
19:14 17.6 °F 8.7 °F 1025.6 in WSW 3.7 mph 3.7 mph 56 % 0.0 in 0.0 W/m2 CLR
19:19 17.4 °F 8.8 °F 1025.3 in WSW 5.6 mph 5.6 mph 57 % 0.0 in 0.0 W/m2 CLR
19:24 17.5 °F 8.6 °F 1025.6 in WSW 4.8 mph 4.8 mph 56 % 0.0 in 0.0 W/m2 CLR
19:29 17.8 °F 8.3 °F 1025.6 in WSW 5.6 mph 5.6 mph 54 % 0.0 in 0.0 W/m2 CLR
19:34 18.1 °F 8.6 °F 1025.6 in West 6.4 mph 6.4 mph 54 % 0.0 in 0.0 W/m2 CLR
19:39 18.2 °F 8.4 °F 1025.6 in West 5.6 mph 5.6 mph 53 % 0.0 in 0.0 W/m2 CLR
19:44 18.1 °F 8.6 °F 1025.6 in West 7.4 mph 7.4 mph 54 % 0.0 in 0.0 W/m2 CLR
19:49 17.7 °F 8.6 °F 1025.6 in West 5.6 mph 5.6 mph 55 % 0.0 in 0.0 W/m2 CLR
19:54 17.3 °F 9.0 °F 1025.6 in Calm     58 % 0.0 in 0.0 W/m2 CLR
19:59 16.7 °F 8.6 °F 1025.6 in Calm     59 % 0.0 in 0.0 W/m2 CLR
20:04 16.1 °F 8.8 °F 1026.0 in Calm     62 % 0.0 in 0.0 W/m2 CLR
20:09 15.5 °F 8.7 °F 1026.0 in Calm     64 % 0.0 in 0.0 W/m2 CLR
20:14 15.0 °F 8.9 °F 1026.0 in Calm     67 % 0.0 in 0.0 W/m2 CLR
20:19 14.6 °F 8.7 °F 1026.0 in Calm     68 % 0.0 in 0.0 W/m2 CLR
20:24 14.3 °F 8.7 °F 1026.0 in Calm     69 % 0.0 in 0.0 W/m2 CLR
20:29 14.0 °F 8.6 °F 1026.3 in Calm     70 % 0.0 in 0.0 W/m2 CLR
20:35 13.7 °F 8.6 °F 1026.3 in Calm     71 % 0.0 in 0.0 W/m2 CLR
20:40 13.3 °F 8.4 °F 1026.3 in Calm     72 % 0.0 in 0.0 W/m2 CLR
20:45 12.9 °F 8.4 °F 1026.3 in Calm     74 % 0.0 in 0.0 W/m2 CLR
20:50 12.6 °F 8.3 °F 1026.3 in Calm     75 % 0.0 in 0.0 W/m2 CLR
20:55 12.3 °F 8.2 °F 1026.3 in Calm     76 % 0.0 in 0.0 W/m2 CLR
21:00 12.1 °F 8.2 °F 1026.3 in Calm     77 % 0.0 in 0.0 W/m2 CLR
21:01 12.1 °F 8.2 °F 1026.3 in Calm     77 % 0.0 in 0.0 W/m2 CLR
21:06 11.9 °F 8.1 °F 1026.3 in Calm     77 % 0.0 in 0.0 W/m2 CLR
21:07 11.9 °F 8.1 °F 1026.3 in Calm     77 % 0.0 in 0.0 W/m2 CLR
21:12 11.8 °F 8.1 °F 1026.3 in Calm     78 % 0.0 in 0.0 W/m2 CLR
21:17 11.7 °F 7.9 °F 1026.3 in Calm     78 % 0.0 in 0.0 W/m2 CLR
21:22 11.5 °F 7.8 °F 1026.3 in Calm     78 % 0.0 in 0.0 W/m2 CLR
21:27 11.4 °F 7.7 °F 1026.6 in Calm     78 % 0.0 in 0.0 W/m2 CLR
21:32 11.3 °F 7.8 °F 1026.6 in Calm     79 % 0.0 in 0.0 W/m2 CLR
21:37 11.3 °F 7.6 °F 1026.6 in Calm     78 % 0.0 in 0.0 W/m2 CLR
21:42 11.3 °F 7.6 °F 1026.6 in Calm     78 % 0.0 in 0.0 W/m2 CLR
21:47 11.2 °F 7.7 °F 1026.6 in Calm     79 % 0.0 in 0.0 W/m2 CLR
21:52 11.1 °F 7.4 °F 1026.6 in Calm     78 % 0.0 in 0.0 W/m2 CLR
21:57 11.1 °F 7.4 °F 1026.6 in Calm     78 % 0.0 in 0.0 W/m2 CLR
22:02 11.1 °F 7.4 °F 1026.6 in Calm     78 % 0.0 in 0.0 W/m2 CLR
22:07 10.9 °F 7.4 °F 1027.0 in Calm     79 % 0.0 in 0.0 W/m2 CLR
22:12 10.6 °F 7.3 °F 1027.0 in Calm     80 % 0.0 in 0.0 W/m2 CLR
22:17 10.5 °F 7.2 °F 1027.0 in Calm     80 % 0.0 in 0.0 W/m2 CLR
22:22 10.4 °F 7.2 °F 1027.0 in Calm     80 % 0.0 in 0.0 W/m2 CLR
22:27 10.3 °F 7.1 °F 1027.0 in Calm     80 % 0.0 in 0.0 W/m2 CLR
22:32 10.2 °F 7.1 °F 1027.0 in Calm     81 % 0.0 in 0.0 W/m2 CLR
22:37 10.3 °F 7.2 °F 1027.0 in Calm     81 % 0.0 in 0.0 W/m2 CLR
22:42 10.3 °F 7.2 °F 1027.0 in Calm     81 % 0.0 in 0.0 W/m2 CLR
22:47 10.1 °F 7.0 °F 1027.0 in Calm     81 % 0.0 in 0.0 W/m2 CLR
22:52 9.8 °F 6.7 °F 1027.0 in Calm     81 % 0.0 in 0.0 W/m2 CLR
22:57 9.7 °F 6.7 °F 1027.0 in Calm     82 % 0.0 in 0.0 W/m2 CLR
23:02 9.5 °F 6.8 °F 1027.0 in Calm     83 % 0.0 in 0.0 W/m2 CLR
23:07 9.4 °F 6.7 °F 1027.0 in Calm     83 % 0.0 in 0.0 W/m2 CLR
23:12 9.3 °F 6.7 °F 1027.0 in Calm     84 % 0.0 in 0.0 W/m2 CLR
23:17 9.2 °F 6.6 °F 1027.0 in Calm     84 % 0.0 in 0.0 W/m2 CLR
23:22 9.1 °F 6.5 °F 1027.0 in Calm     84 % 0.0 in 0.0 W/m2 CLR
23:27 9.1 °F 6.7 °F 1027.0 in Calm     85 % 0.0 in 0.0 W/m2 CLR
23:32 9.1 °F 6.7 °F 1027.3 in Calm     85 % 0.0 in 0.0 W/m2 CLR
23:37 9.1 °F 6.5 °F 1027.3 in Calm     84 % 0.0 in 0.0 W/m2 CLR
23:42 8.9 °F 6.6 °F 1027.0 in Calm     85 % 0.0 in 0.0 W/m2 CLR
23:47 8.8 °F 6.4 °F 1027.0 in Calm     85 % 0.0 in 0.0 W/m2 CLR
23:52 8.9 °F 6.5 °F 1027.3 in SW 3.2 mph 3.2 mph 85 % 0.0 in 0.0 W/m2 CLR
23:57 8.9 °F 6.5 °F 1027.3 in SW 5.6 mph 5.6 mph 85 % 0.0 in 0.0 W/m2 CLR
Lo Temps de Massalio
Compliments of Weather Underground - 1.25 mb